sensor_id;sensor_type;location;lat;lon;timestamp;pressure;altitude;pressure_sealevel;temperature;humidity
11053;BME280;55230;42.602;23.470;2023-04-30T00:01:15;93050.31;;;7.43;98.00
11053;BME280;55230;42.602;23.470;2023-04-30T00:03:42;93092.97;;;7.72;98.55
11053;BME280;55230;42.602;23.470;2023-04-30T00:06:10;93153.88;;;8.05;99.47
11053;BME280;55230;42.602;23.470;2023-04-30T00:08:37;93132.28;;;7.87;100.00
11053;BME280;55230;42.602;23.470;2023-04-30T00:11:04;93234.84;;;8.38;100.00
11053;BME280;55230;42.602;23.470;2023-04-30T00:13:31;93061.41;;;7.33;100.00
11053;BME280;55230;42.602;23.470;2023-04-30T00:15:58;93202.09;;;8.31;100.00
11053;BME280;55230;42.602;23.470;2023-04-30T00:18:24;92716.56;;;5.01;100.00
11053;BME280;55230;42.602;23.470;2023-04-30T00:20:51;93204.47;;;8.29;100.00
11053;BME280;55230;42.602;23.470;2023-04-30T00:23:19;93054.66;;;7.07;100.00
11053;BME280;55230;42.602;23.470;2023-04-30T00:25:46;92994.47;;;6.86;100.00
11053;BME280;55230;42.602;23.470;2023-04-30T00:28:12;93010.63;;;6.95;100.00
11053;BME280;55230;42.602;23.470;2023-04-30T00:30:39;93196.97;;;8.24;100.00
11053;BME280;55230;42.602;23.470;2023-04-30T00:33:06;93066.25;;;7.25;100.00
11053;BME280;55230;42.602;23.470;2023-04-30T00:35:32;93099.47;;;7.40;100.00
11053;BME280;55230;42.602;23.470;2023-04-30T00:37:59;93203.78;;;8.15;100.00
11053;BME280;55230;42.602;23.470;2023-04-30T00:40:27;93213.00;;;8.14;100.00
11053;BME280;55230;42.602;23.470;2023-04-30T00:42:54;93204.47;;;8.07;100.00
11053;BME280;55230;42.602;23.470;2023-04-30T00:45:21;92949.06;;;6.02;100.00
11053;BME280;55230;42.602;23.470;2023-04-30T00:47:48;93121.16;;;7.33;100.00
11053;BME280;55230;42.602;23.470;2023-04-30T00:50:15;93194.59;;;8.04;100.00
11053;BME280;55230;42.602;23.470;2023-04-30T00:52:42;92927.66;;;5.89;100.00
11053;BME280;55230;42.602;23.470;2023-04-30T00:55:10;93060.13;;;7.03;100.00
11053;BME280;55230;42.602;23.470;2023-04-30T00:57:38;93111.28;;;7.30;100.00
11053;BME280;55230;42.602;23.470;2023-04-30T01:00:07;93201.72;;;7.98;100.00
11053;BME280;55230;42.602;23.470;2023-04-30T01:02:35;93202.47;;;7.98;100.00
11053;BME280;55230;42.602;23.470;2023-04-30T01:05:03;93194.34;;;7.89;100.00
11053;BME280;55230;42.602;23.470;2023-04-30T01:07:30;93200.09;;;8.00;100.00
11053;BME280;55230;42.602;23.470;2023-04-30T01:09:57;93080.84;;;7.24;100.00
11053;BME280;55230;42.602;23.470;2023-04-30T01:12:29;93148.75;;;7.55;100.00
11053;BME280;55230;42.602;23.470;2023-04-30T01:15:07;93133.63;;;7.27;100.00
11053;BME280;55230;42.602;23.470;2023-04-30T01:17:38;93194.38;;;7.77;100.00
11053;BME280;55230;42.602;23.470;2023-04-30T01:20:08;93192.19;;;7.63;100.00
11053;BME280;55230;42.602;23.470;2023-04-30T01:22:45;93216.66;;;7.65;100.00
11053;BME280;55230;42.602;23.470;2023-04-30T01:25:33;93044.59;;;6.64;100.00
11053;BME280;55230;42.602;23.470;2023-04-30T01:28:04;93195.19;;;7.65;100.00
11053;BME280;55230;42.602;23.470;2023-04-30T01:30:33;93198.63;;;7.65;100.00
11053;BME280;55230;42.602;23.470;2023-04-30T01:33:00;93183.06;;;7.60;100.00
11053;BME280;55230;42.602;23.470;2023-04-30T01:35:38;93184.56;;;7.61;100.00
11053;BME280;55230;42.602;23.470;2023-04-30T01:38:11;93112.97;;;7.02;100.00
11053;BME280;55230;42.602;23.470;2023-04-30T01:40:47;93192.56;;;7.52;100.00
11053;BME280;55230;42.602;23.470;2023-04-30T01:43:23;93185.59;;;7.42;100.00
11053;BME280;55230;42.602;23.470;2023-04-30T01:46:02;92950.78;;;5.70;100.00
11053;BME280;55230;42.602;23.470;2023-04-30T01:48:41;93190.25;;;7.29;100.00
11053;BME280;55230;42.602;23.470;2023-04-30T01:51:14;93104.34;;;6.73;100.00
11053;BME280;55230;42.602;23.470;2023-04-30T01:53:44;93190.09;;;7.45;100.00
11053;BME280;55230;42.602;23.470;2023-04-30T01:56:17;93194.28;;;7.46;100.00
11053;BME280;55230;42.602;23.470;2023-04-30T01:58:48;93182.69;;;7.49;100.00
11053;BME280;55230;42.602;23.470;2023-04-30T02:01:26;93184.19;;;7.50;100.00
11053;BME280;55230;42.602;23.470;2023-04-30T02:03:53;93144.03;;;7.25;100.00
11053;BME280;55230;42.602;23.470;2023-04-30T02:06:20;93110.22;;;6.93;100.00
11053;BME280;55230;42.602;23.470;2023-04-30T02:08:50;93178.19;;;7.46;100.00
11053;BME280;55230;42.602;23.470;2023-04-30T02:11:16;93193.34;;;7.40;100.00
11053;BME280;55230;42.602;23.470;2023-04-30T02:13:43;93163.97;;;7.24;100.00
11053;BME280;55230;42.602;23.470;2023-04-30T02:16:11;92883.28;;;5.41;100.00
11053;BME280;55230;42.602;23.470;2023-04-30T02:18:38;93030.91;;;6.37;100.00
11053;BME280;55230;42.602;23.470;2023-04-30T02:21:05;93182.06;;;7.45;100.00
11053;BME280;55230;42.602;23.470;2023-04-30T02:23:31;93183.97;;;7.45;100.00
11053;BME280;55230;42.602;23.470;2023-04-30T02:25:58;93189.16;;;7.39;100.00
11053;BME280;55230;42.602;23.470;2023-04-30T02:28:25;93166.25;;;7.13;100.00
11053;BME280;55230;42.602;23.470;2023-04-30T02:30:52;93181.31;;;7.32;100.00
11053;BME280;55230;42.602;23.470;2023-04-30T02:33:20;93142.47;;;7.02;100.00
11053;BME280;55230;42.602;23.470;2023-04-30T02:35:46;93107.88;;;6.83;100.00
11053;BME280;55230;42.602;23.470;2023-04-30T02:38:13;93184.53;;;7.40;100.00
11053;BME280;55230;42.602;23.470;2023-04-30T02:40:40;93185.53;;;7.33;100.00
11053;BME280;55230;42.602;23.470;2023-04-30T02:43:07;93187.34;;;7.36;100.00
11053;BME280;55230;42.602;23.470;2023-04-30T02:45:33;93209.22;;;7.35;100.00
11053;BME280;55230;42.602;23.470;2023-04-30T02:48:00;93132.63;;;6.87;100.00
11053;BME280;55230;42.602;23.470;2023-04-30T02:50:28;92994.97;;;5.88;100.00
11053;BME280;55230;42.602;23.470;2023-04-30T02:52:55;93101.72;;;6.48;100.00
11053;BME280;55230;42.602;23.470;2023-04-30T02:55:22;92554.69;;;2.78;100.00
11053;BME280;55230;42.602;23.470;2023-04-30T02:57:48;93169.50;;;6.95;100.00
11053;BME280;55230;42.602;23.470;2023-04-30T03:00:15;93187.31;;;7.02;100.00
11053;BME280;55230;42.602;23.470;2023-04-30T03:02:42;93233.50;;;7.06;100.00
11053;BME280;55230;42.602;23.470;2023-04-30T03:05:10;93199.50;;;7.16;100.00
11053;BME280;55230;42.602;23.470;2023-04-30T03:07:38;93212.03;;;7.19;100.00
11053;BME280;55230;42.602;23.470;2023-04-30T03:10:05;93121.09;;;6.40;100.00
11053;BME280;55230;42.602;23.470;2023-04-30T03:12:32;93206.69;;;7.06;100.00
11053;BME280;55230;42.602;23.470;2023-04-30T03:14:59;93203.88;;;7.35;100.00
11053;BME280;55230;42.602;23.470;2023-04-30T03:17:26;93206.31;;;7.42;100.00
11053;BME280;55230;42.602;23.470;2023-04-30T03:19:52;93213.50;;;7.45;100.00
11053;BME280;55230;42.602;23.470;2023-04-30T03:22:19;93068.91;;;6.57;100.00
11053;BME280;55230;42.602;23.470;2023-04-30T03:24:49;93208.38;;;7.59;100.00
11053;BME280;55230;42.602;23.470;2023-04-30T03:27:16;93158.63;;;7.24;100.00
11053;BME280;55230;42.602;23.470;2023-04-30T03:29:43;93208.28;;;7.63;100.00
11053;BME280;55230;42.602;23.470;2023-04-30T03:32:09;93149.59;;;7.18;100.00
11053;BME280;55230;42.602;23.470;2023-04-30T03:34:37;93213.53;;;7.66;100.00
11053;BME280;55230;42.602;23.470;2023-04-30T03:37:03;93216.59;;;7.77;100.00
11053;BME280;55230;42.602;23.470;2023-04-30T03:39:30;93216.06;;;7.82;100.00
11053;BME280;55230;42.602;23.470;2023-04-30T03:41:58;93221.69;;;7.97;100.00
11053;BME280;55230;42.602;23.470;2023-04-30T03:44:26;93224.81;;;8.17;100.00
11053;BME280;55230;42.602;23.470;2023-04-30T03:46:52;92934.25;;;6.22;100.00
11053;BME280;55230;42.602;23.470;2023-04-30T03:49:19;93225.44;;;8.43;100.00
11053;BME280;55230;42.602;23.470;2023-04-30T03:51:46;93231.06;;;8.57;100.00
11053;BME280;55230;42.602;23.470;2023-04-30T03:54:12;93139.56;;;8.08;100.00
11053;BME280;55230;42.602;23.470;2023-04-30T03:56:39;93176.50;;;8.39;100.00
11053;BME280;55230;42.602;23.470;2023-04-30T03:59:07;93231.38;;;8.90;100.00
11053;BME280;55230;42.602;23.470;2023-04-30T04:01:34;93213.53;;;8.74;100.00
11053;BME280;55230;42.602;23.470;2023-04-30T04:04:01;93244.03;;;9.20;100.00
11053;BME280;55230;42.602;23.470;2023-04-30T04:06:28;93212.59;;;8.99;100.00
11053;BME280;55230;42.602;23.470;2023-04-30T04:08:55;93136.75;;;8.73;100.00
11053;BME280;55230;42.602;23.470;2023-04-30T04:11:21;93240.09;;;9.52;100.00
11053;BME280;55230;42.602;23.470;2023-04-30T04:13:48;93240.41;;;9.54;100.00
11053;BME280;55230;42.602;23.470;2023-04-30T04:16:16;93249.84;;;9.67;100.00
11053;BME280;55230;42.602;23.470;2023-04-30T04:18:43;93274.69;;;9.80;100.00
11053;BME280;55230;42.602;23.470;2023-04-30T04:21:10;92777.63;;;6.18;100.00
11053;BME280;55230;42.602;23.470;2023-04-30T04:23:37;93252.28;;;10.01;100.00
11053;BME280;55230;42.602;23.470;2023-04-30T04:26:04;93150.47;;;9.15;100.00
11053;BME280;55230;42.602;23.470;2023-04-30T04:28:30;93262.59;;;10.03;100.00
11053;BME280;55230;42.602;23.470;2023-04-30T04:30:57;93113.72;;;9.12;100.00
11053;BME280;55230;42.602;23.470;2023-04-30T04:33:25;93269.09;;;10.14;97.71
11053;BME280;55230;42.602;23.470;2023-04-30T04:35:53;93267.59;;;10.31;96.58
11053;BME280;55230;42.602;23.470;2023-04-30T04:38:21;93267.44;;;10.35;96.11
11053;BME280;55230;42.602;23.470;2023-04-30T04:40:51;92963.13;;;8.18;96.96
11053;BME280;55230;42.602;23.470;2023-04-30T04:43:18;93135.13;;;9.52;96.32
11053;BME280;55230;42.602;23.470;2023-04-30T04:45:45;93216.69;;;10.15;96.63
11053;BME280;55230;42.602;23.470;2023-04-30T04:48:12;93335.25;;;10.42;96.26
11053;BME280;55230;42.602;23.470;2023-04-30T04:50:40;92785.81;;;6.97;95.00
11053;BME280;55230;42.602;23.470;2023-04-30T04:53:07;93261.25;;;9.89;95.09
11053;BME280;55230;42.602;23.470;2023-04-30T04:55:34;93282.22;;;10.03;99.53
11053;BME280;55230;42.602;23.470;2023-04-30T04:58:01;93235.78;;;9.63;100.00
11053;BME280;55230;42.602;23.470;2023-04-30T05:00:28;93281.00;;;9.95;100.00
11053;BME280;55230;42.602;23.470;2023-04-30T05:02:54;93210.38;;;9.64;100.00
11053;BME280;55230;42.602;23.470;2023-04-30T05:05:21;93096.38;;;9.04;100.00
11053;BME280;55230;42.602;23.470;2023-04-30T05:07:49;93264.44;;;10.42;100.00
11053;BME280;55230;42.602;23.470;2023-04-30T05:10:19;93263.00;;;10.83;100.00
11053;BME280;55230;42.602;23.470;2023-04-30T05:12:46;93283.41;;;10.66;100.00
11053;BME280;55230;42.602;23.470;2023-04-30T05:15:12;93282.66;;;10.65;100.00
11053;BME280;55230;42.602;23.470;2023-04-30T05:17:39;93191.38;;;10.04;100.00
11053;BME280;55230;42.602;23.470;2023-04-30T05:20:07;93289.13;;;10.59;100.00
11053;BME280;55230;42.602;23.470;2023-04-30T05:22:34;93281.03;;;10.68;100.00
11053;BME280;55230;42.602;23.470;2023-04-30T05:25:02;93292.13;;;10.61;100.00
11053;BME280;55230;42.602;23.470;2023-04-30T05:27:29;92805.75;;;6.96;100.00
11053;BME280;55230;42.602;23.470;2023-04-30T05:29:56;93294.66;;;10.46;100.00
11053;BME280;55230;42.602;23.470;2023-04-30T05:32:23;93242.72;;;10.00;100.00
11053;BME280;55230;42.602;23.470;2023-04-30T05:34:50;93277.75;;;10.18;100.00
11053;BME280;55230;42.602;23.470;2023-04-30T05:37:17;93282.13;;;10.25;100.00
11053;BME280;55230;42.602;23.470;2023-04-30T05:39:45;93289.88;;;10.41;100.00
11053;BME280;55230;42.602;23.470;2023-04-30T05:42:13;93234.78;;;10.06;99.87
11053;BME280;55230;42.602;23.470;2023-04-30T05:44:40;93193.47;;;9.91;99.92
11053;BME280;55230;42.602;23.470;2023-04-30T05:47:06;93299.59;;;10.75;98.00
11053;BME280;55230;42.602;23.470;2023-04-30T05:49:33;93301.53;;;10.74;97.72
11053;BME280;55230;42.602;23.470;2023-04-30T05:52:00;93309.00;;;10.97;96.80
11053;BME280;55230;42.602;23.470;2023-04-30T05:54:27;93300.69;;;11.10;95.94
11053;BME280;55230;42.602;23.470;2023-04-30T05:56:54;93297.19;;;11.36;95.26
11053;BME280;55230;42.602;23.470;2023-04-30T05:59:22;93229.75;;;11.18;93.03
11053;BME280;55230;42.602;23.470;2023-04-30T06:01:50;93319.59;;;11.93;92.73
11053;BME280;55230;42.602;23.470;2023-04-30T06:04:17;93296.81;;;12.09;91.30
11053;BME280;55230;42.602;23.470;2023-04-30T06:06:43;93217.28;;;11.53;91.02
11053;BME280;55230;42.602;23.470;2023-04-30T06:09:10;92935.78;;;9.73;91.34
11053;BME280;55230;42.602;23.470;2023-04-30T06:11:37;93228.53;;;11.85;87.86
11053;BME280;55230;42.602;23.470;2023-04-30T06:14:04;93222.72;;;12.01;87.91
11053;BME280;55230;42.602;23.470;2023-04-30T06:16:32;93305.25;;;12.25;87.42
11053;BME280;55230;42.602;23.470;2023-04-30T06:18:59;93269.53;;;11.83;89.43
11053;BME280;55230;42.602;23.470;2023-04-30T06:21:25;93164.75;;;11.07;90.31
11053;BME280;55230;42.602;23.470;2023-04-30T06:23:52;93313.16;;;11.91;89.92
11053;BME280;55230;42.602;23.470;2023-04-30T06:26:19;93303.66;;;11.72;94.69
11053;BME280;55230;42.602;23.470;2023-04-30T06:28:46;93183.63;;;10.75;98.65
11053;BME280;55230;42.602;23.470;2023-04-30T06:31:12;93171.13;;;10.44;99.27
11053;BME280;55230;42.602;23.470;2023-04-30T06:33:41;93309.41;;;11.65;100.00
11053;BME280;55230;42.602;23.470;2023-04-30T06:36:07;93287.34;;;11.15;100.00
11053;BME280;55230;42.602;23.470;2023-04-30T06:38:34;93298.72;;;11.61;100.00
11053;BME280;55230;42.602;23.470;2023-04-30T06:41:01;93374.06;;;11.59;100.00
11053;BME280;55230;42.602;23.470;2023-04-30T06:43:28;93240.91;;;11.44;99.76
11053;BME280;55230;42.602;23.470;2023-04-30T06:45:54;93298.69;;;12.03;97.62
11053;BME280;55230;42.602;23.470;2023-04-30T06:48:21;93116.69;;;10.73;95.58
11053;BME280;55230;42.602;23.470;2023-04-30T06:50:49;93314.81;;;11.88;92.16
11053;BME280;55230;42.602;23.470;2023-04-30T06:53:16;93070.25;;;10.27;94.75
11053;BME280;55230;42.602;23.470;2023-04-30T06:55:43;93311.75;;;11.72;96.10
11053;BME280;55230;42.602;23.470;2023-04-30T06:58:10;93327.09;;;11.66;98.17
11053;BME280;55230;42.602;23.470;2023-04-30T07:00:37;93319.94;;;11.86;96.45
11053;BME280;55230;42.602;23.470;2023-04-30T07:03:04;93317.66;;;11.94;96.05
11053;BME280;55230;42.602;23.470;2023-04-30T07:05:31;93058.56;;;10.30;94.97
11053;BME280;55230;42.602;23.470;2023-04-30T07:08:00;93275.13;;;11.94;94.73
11053;BME280;55230;42.602;23.470;2023-04-30T07:10:27;93180.25;;;11.54;92.69
11053;BME280;55230;42.602;23.470;2023-04-30T07:12:54;93240.16;;;12.52;91.13
11053;BME280;55230;42.602;23.470;2023-04-30T07:15:21;93325.63;;;13.26;86.45
11053;BME280;55230;42.602;23.470;2023-04-30T07:17:48;93332.03;;;13.58;85.01
11053;BME280;55230;42.602;23.470;2023-04-30T07:20:15;93206.69;;;12.35;83.25
11053;BME280;55230;42.602;23.470;2023-04-30T07:22:42;93331.66;;;13.65;81.46
11053;BME280;55230;42.602;23.470;2023-04-30T07:25:12;93335.66;;;13.55;78.87
11053;BME280;55230;42.602;23.470;2023-04-30T07:27:39;93106.84;;;11.79;81.52
11053;BME280;55230;42.602;23.470;2023-04-30T07:30:07;93337.22;;;13.76;75.94
11053;BME280;55230;42.602;23.470;2023-04-30T07:32:35;93336.94;;;13.74;75.89
11053;BME280;55230;42.602;23.470;2023-04-30T07:35:02;93334.75;;;13.29;78.01
11053;BME280;55230;42.602;23.470;2023-04-30T07:37:30;93341.69;;;13.30;78.07
11053;BME280;55230;42.602;23.470;2023-04-30T07:39:57;93359.78;;;13.24;79.91
11053;BME280;55230;42.602;23.470;2023-04-30T07:42:25;93264.16;;;12.59;80.28
11053;BME280;55230;42.602;23.470;2023-04-30T07:44:52;93360.63;;;13.59;78.81
11053;BME280;55230;42.602;23.470;2023-04-30T07:47:18;93211.31;;;12.35;78.91
11053;BME280;55230;42.602;23.470;2023-04-30T07:49:45;93284.59;;;12.90;79.23
11053;BME280;55230;42.602;23.470;2023-04-30T07:52:12;93295.97;;;12.64;80.69
11053;BME280;55230;42.602;23.470;2023-04-30T07:54:39;93357.88;;;13.01;81.27
11053;BME280;55230;42.602;23.470;2023-04-30T07:57:06;93268.03;;;12.06;80.18
11053;BME280;55230;42.602;23.470;2023-04-30T07:59:34;93295.81;;;12.44;81.01
11053;BME280;55230;42.602;23.470;2023-04-30T08:02:01;93353.25;;;12.77;80.26
11053;BME280;55230;42.602;23.470;2023-04-30T08:04:28;93349.66;;;12.95;80.86
11053;BME280;55230;42.602;23.470;2023-04-30T08:06:54;93351.00;;;13.29;80.42
11053;BME280;55230;42.602;23.470;2023-04-30T08:09:21;93353.06;;;13.63;79.18
11053;BME280;55230;42.602;23.470;2023-04-30T08:11:48;93349.09;;;13.78;74.15
11053;BME280;55230;42.602;23.470;2023-04-30T08:14:15;93184.47;;;12.90;73.35
11053;BME280;55230;42.602;23.470;2023-04-30T08:16:43;93308.00;;;14.00;68.92
11053;BME280;55230;42.602;23.470;2023-04-30T08:19:09;93355.81;;;14.52;68.17
11053;BME280;55230;42.602;23.470;2023-04-30T08:21:36;92846.28;;;11.02;67.18
11053;BME280;55230;42.602;23.470;2023-04-30T08:24:04;93291.63;;;14.09;67.68
11053;BME280;55230;42.602;23.470;2023-04-30T08:26:31;93303.84;;;14.59;67.86
11053;BME280;55230;42.602;23.470;2023-04-30T08:28:57;93351.97;;;15.04;64.72
11053;BME280;55230;42.602;23.470;2023-04-30T08:31:24;93263.59;;;14.32;67.98
11053;BME280;55230;42.602;23.470;2023-04-30T08:33:52;93165.16;;;13.66;64.68
11053;BME280;55230;42.602;23.470;2023-04-30T08:36:19;93352.00;;;14.84;68.08
11053;BME280;55230;42.602;23.470;2023-04-30T08:38:46;93374.34;;;15.20;66.46
11053;BME280;55230;42.602;23.470;2023-04-30T08:41:13;93358.13;;;15.05;68.49
11053;BME280;55230;42.602;23.470;2023-04-30T08:43:43;93202.78;;;13.78;66.90
11053;BME280;55230;42.602;23.470;2023-04-30T08:46:10;93366.78;;;14.63;69.00
11053;BME280;55230;42.602;23.470;2023-04-30T08:48:40;93209.84;;;13.56;71.34
11053;BME280;55230;42.602;23.470;2023-04-30T08:51:08;93311.00;;;14.22;71.32
11053;BME280;55230;42.602;23.470;2023-04-30T08:53:35;93304.63;;;14.05;71.17
11053;BME280;55230;42.602;23.470;2023-04-30T08:56:03;93375.22;;;14.65;71.74
11053;BME280;55230;42.602;23.470;2023-04-30T08:58:30;93348.13;;;14.91;72.34
11053;BME280;55230;42.602;23.470;2023-04-30T09:00:57;93346.66;;;15.16;71.95
11053;BME280;55230;42.602;23.470;2023-04-30T09:03:24;93348.94;;;15.43;69.94
11053;BME280;55230;42.602;23.470;2023-04-30T09:05:53;93292.88;;;15.20;66.07
11053;BME280;55230;42.602;23.470;2023-04-30T09:08:40;93342.06;;;15.78;68.13
11053;BME280;55230;42.602;23.470;2023-04-30T09:11:19;93304.88;;;15.39;66.15
11053;BME280;55230;42.602;23.470;2023-04-30T09:13:49;93316.28;;;15.17;63.93
11053;BME280;55230;42.602;23.470;2023-04-30T09:16:17;93336.22;;;15.60;65.75
11053;BME280;55230;42.602;23.470;2023-04-30T09:18:43;93288.00;;;15.29;64.11
11053;BME280;55230;42.602;23.470;2023-04-30T09:21:10;93080.34;;;13.80;67.46
11053;BME280;55230;42.602;23.470;2023-04-30T09:23:53;93292.34;;;15.78;64.68
11053;BME280;55230;42.602;23.470;2023-04-30T09:26:21;93334.19;;;15.86;61.31
11053;BME280;55230;42.602;23.470;2023-04-30T09:28:55;93265.78;;;15.31;63.43
11053;BME280;55230;42.602;23.470;2023-04-30T09:31:23;93187.25;;;15.33;60.82
11053;BME280;55230;42.602;23.470;2023-04-30T09:33:50;93281.34;;;16.46;59.26
11053;BME280;55230;42.602;23.470;2023-04-30T09:36:18;93305.84;;;17.15;52.83
11053;BME280;55230;42.602;23.470;2023-04-30T09:38:46;93311.88;;;17.53;54.67
11053;BME280;55230;42.602;23.470;2023-04-30T09:41:24;93295.00;;;17.60;53.46
11053;BME280;55230;42.602;23.470;2023-04-30T09:43:52;93280.06;;;17.05;50.80
11053;BME280;55230;42.602;23.470;2023-04-30T09:46:19;93031.28;;;15.50;48.70
11053;BME280;55230;42.602;23.470;2023-04-30T09:48:55;93294.41;;;17.00;52.16
11053;BME280;55230;42.602;23.470;2023-04-30T09:51:22;93260.28;;;17.21;49.82
11053;BME280;55230;42.602;23.470;2023-04-30T09:53:51;93303.69;;;17.80;49.25
11053;BME280;55230;42.602;23.470;2023-04-30T09:56:20;93279.94;;;18.60;49.69
11053;BME280;55230;42.602;23.470;2023-04-30T09:58:49;93206.50;;;17.66;46.16
11053;BME280;55230;42.602;23.470;2023-04-30T10:01:17;93234.03;;;17.57;47.80
11053;BME280;55230;42.602;23.470;2023-04-30T10:03:46;93084.66;;;16.45;47.43
11053;BME280;55230;42.602;23.470;2023-04-30T10:06:14;93272.19;;;17.57;47.38
11053;BME280;55230;42.602;23.470;2023-04-30T10:08:46;93272.06;;;16.74;50.71
11053;BME280;55230;42.602;23.470;2023-04-30T10:11:18;93210.19;;;16.80;49.07
11053;BME280;55230;42.602;23.470;2023-04-30T10:13:51;93057.03;;;15.66;49.21
11053;BME280;55230;42.602;23.470;2023-04-30T10:16:29;93279.81;;;17.09;50.58
11053;BME280;55230;42.602;23.470;2023-04-30T10:19:06;93157.63;;;15.71;51.65
11053;BME280;55230;42.602;23.470;2023-04-30T10:21:39;93219.78;;;15.95;53.91
11053;BME280;55230;42.602;23.470;2023-04-30T10:24:08;93282.31;;;16.37;52.03
11053;BME280;55230;42.602;23.470;2023-04-30T10:26:37;93286.38;;;15.68;54.87
11053;BME280;55230;42.602;23.470;2023-04-30T10:29:04;93087.44;;;14.23;55.28
11053;BME280;55230;42.602;23.470;2023-04-30T10:31:32;93273.63;;;15.23;57.18
11053;BME280;55230;42.602;23.470;2023-04-30T10:34:08;93295.78;;;15.73;58.89
11053;BME280;55230;42.602;23.470;2023-04-30T10:36:39;93124.75;;;14.90;56.55
11053;BME280;55230;42.602;23.470;2023-04-30T10:39:09;93250.88;;;15.46;60.52
11053;BME280;55230;42.602;23.470;2023-04-30T10:41:38;93262.28;;;15.25;63.22
11053;BME280;55230;42.602;23.470;2023-04-30T10:44:06;93255.38;;;15.24;64.60
11053;BME280;55230;42.602;23.470;2023-04-30T10:46:34;93273.00;;;16.07;65.68
11053;BME280;55230;42.602;23.470;2023-04-30T10:49:01;93289.50;;;15.98;59.89
11053;BME280;55230;42.602;23.470;2023-04-30T10:51:46;93317.63;;;15.84;62.23
11053;BME280;55230;42.602;23.470;2023-04-30T10:54:16;93263.44;;;14.41;71.75
11053;BME280;55230;42.602;23.470;2023-04-30T10:56:50;93334.81;;;14.93;82.17
11053;BME280;55230;42.602;23.470;2023-04-30T10:59:17;93258.81;;;14.27;80.68
11053;BME280;55230;42.602;23.470;2023-04-30T11:01:58;93247.69;;;14.05;84.59
11053;BME280;55230;42.602;23.470;2023-04-30T11:04:25;93334.53;;;14.45;84.61
11053;BME280;55230;42.602;23.470;2023-04-30T11:07:00;93246.06;;;13.93;87.42
11053;BME280;55230;42.602;23.470;2023-04-30T11:09:40;93302.63;;;14.60;87.61
11053;BME280;55230;42.602;23.470;2023-04-30T11:12:14;93324.72;;;15.45;91.53
11053;BME280;55230;42.602;23.470;2023-04-30T11:14:42;93327.69;;;15.78;81.70
11053;BME280;55230;42.602;23.470;2023-04-30T11:17:10;93314.69;;;16.77;82.65
11053;BME280;55230;42.602;23.470;2023-04-30T11:19:57;93323.53;;;17.75;71.13
11053;BME280;55230;42.602;23.470;2023-04-30T11:22:26;93304.91;;;17.90;58.07
11053;BME280;55230;42.602;23.470;2023-04-30T11:25:03;93187.91;;;17.54;54.87
11053;BME280;55230;42.602;23.470;2023-04-30T11:27:32;93298.75;;;19.21;51.67
11053;BME280;55230;42.602;23.470;2023-04-30T11:30:01;93307.00;;;19.15;52.35
11053;BME280;55230;42.602;23.470;2023-04-30T11:32:33;93266.78;;;19.45;54.91
11053;BME280;55230;42.602;23.470;2023-04-30T11:35:00;93294.25;;;20.23;55.23
11053;BME280;55230;42.602;23.470;2023-04-30T11:37:32;93300.94;;;19.69;47.43
11053;BME280;55230;42.602;23.470;2023-04-30T11:40:02;93290.94;;;18.32;49.76
11053;BME280;55230;42.602;23.470;2023-04-30T11:42:30;93300.47;;;17.60;47.99
11053;BME280;55230;42.602;23.470;2023-04-30T11:45:04;93311.78;;;16.44;49.91
11053;BME280;55230;42.602;23.470;2023-04-30T11:47:41;93244.41;;;15.75;50.70
11053;BME280;55230;42.602;23.470;2023-04-30T11:50:10;93306.63;;;16.46;50.61
11053;BME280;55230;42.602;23.470;2023-04-30T11:52:37;93213.56;;;15.83;55.27
11053;BME280;55230;42.602;23.470;2023-04-30T11:55:06;93313.19;;;16.29;55.33
11053;BME280;55230;42.602;23.470;2023-04-30T11:57:39;93315.88;;;16.23;65.06
11053;BME280;55230;42.602;23.470;2023-04-30T12:00:13;93316.56;;;16.12;64.27
11053;BME280;55230;42.602;23.470;2023-04-30T12:02:41;93241.06;;;15.54;65.51
11053;BME280;55230;42.602;23.470;2023-04-30T12:05:18;93160.03;;;14.59;66.84
11053;BME280;55230;42.602;23.470;2023-04-30T12:07:46;93291.53;;;16.03;64.96
11053;BME280;55230;42.602;23.470;2023-04-30T12:10:13;93271.63;;;15.80;63.25
11053;BME280;55230;42.602;23.470;2023-04-30T12:12:43;93283.78;;;15.90;72.19
11053;BME280;55230;42.602;23.470;2023-04-30T12:15:14;93303.53;;;16.22;74.73
11053;BME280;55230;42.602;23.470;2023-04-30T12:17:41;93295.25;;;16.48;71.59
11053;BME280;55230;42.602;23.470;2023-04-30T12:20:10;93237.22;;;15.72;70.67
11053;BME280;55230;42.602;23.470;2023-04-30T12:22:37;93215.13;;;15.59;72.44
11053;BME280;55230;42.602;23.470;2023-04-30T12:25:11;93267.56;;;16.60;68.63
11053;BME280;55230;42.602;23.470;2023-04-30T12:27:39;93266.19;;;16.92;65.91
11053;BME280;55230;42.602;23.470;2023-04-30T12:30:08;93267.44;;;17.08;60.58
11053;BME280;55230;42.602;23.470;2023-04-30T12:32:39;93272.31;;;16.76;62.32
11053;BME280;55230;42.602;23.470;2023-04-30T12:35:07;93291.84;;;16.69;62.59
11053;BME280;55230;42.602;23.470;2023-04-30T12:37:34;93229.06;;;16.25;61.75
11053;BME280;55230;42.602;23.470;2023-04-30T12:40:01;93313.91;;;16.29;65.40
11053;BME280;55230;42.602;23.470;2023-04-30T12:42:31;93334.72;;;15.33;69.66
11053;BME280;55230;42.602;23.470;2023-04-30T12:45:00;93338.31;;;14.73;80.85
11053;BME280;55230;42.602;23.470;2023-04-30T12:47:28;93332.78;;;13.93;86.03
11053;BME280;55230;42.602;23.470;2023-04-30T12:49:55;93336.94;;;13.74;86.48
11053;BME280;55230;42.602;23.470;2023-04-30T12:52:23;93284.22;;;12.97;90.93
11053;BME280;55230;42.602;23.470;2023-04-30T12:54:51;93310.13;;;13.76;91.25
11053;BME280;55230;42.602;23.470;2023-04-30T12:57:18;93315.34;;;13.30;90.64